createdAt,value
2022-11-28T00:01:29.264Z,7.80
2022-11-28T00:03:56.108Z,7.80
2022-11-28T00:06:23.022Z,7.80
2022-11-28T00:08:49.790Z,7.90
2022-11-28T00:11:17.573Z,7.80
2022-11-28T00:13:45.303Z,7.80
2022-11-28T00:16:21.615Z,7.80
2022-11-28T00:18:50.070Z,7.80
2022-11-28T00:21:17.572Z,7.80
2022-11-28T00:23:46.351Z,7.80
2022-11-28T00:26:32.431Z,7.70
2022-11-28T00:29:00.145Z,7.80
2022-11-28T00:31:32.930Z,7.80
2022-11-28T00:34:01.806Z,7.70
2022-11-28T00:36:29.745Z,7.70
2022-11-28T00:38:56.692Z,7.70
2022-11-28T00:41:26.411Z,7.70
2022-11-28T00:43:53.298Z,7.70
2022-11-28T00:46:22.425Z,7.70
2022-11-28T00:48:50.028Z,7.70
2022-11-28T00:51:25.963Z,7.70
2022-11-28T00:53:55.250Z,7.70
2022-11-28T00:56:30.859Z,7.60
2022-11-28T00:58:58.184Z,7.60
2022-11-28T01:01:33.843Z,7.60
2022-11-28T01:04:03.858Z,7.60
2022-11-28T01:06:36.583Z,7.60
2022-11-28T01:09:10.618Z,7.60
2022-11-28T01:11:41.482Z,7.50
2022-11-28T01:14:08.896Z,7.50
2022-11-28T01:16:36.175Z,7.50
2022-11-28T01:19:03.059Z,7.50
2022-11-28T01:21:29.958Z,7.50
2022-11-28T01:23:57.017Z,7.50
2022-11-28T01:26:27.817Z,7.50
2022-11-28T01:28:55.933Z,7.50
2022-11-28T01:31:26.651Z,7.50
2022-11-28T01:33:53.817Z,7.50
2022-11-28T01:36:21.775Z,7.50
2022-11-28T01:38:49.617Z,7.50
2022-11-28T01:41:20.026Z,7.40
2022-11-28T01:44:06.511Z,7.40
2022-11-28T01:46:35.308Z,7.40
2022-11-28T01:49:11.248Z,7.50
2022-11-28T01:51:40.753Z,7.50
2022-11-28T01:54:07.922Z,7.50
2022-11-28T01:56:51.304Z,7.40
2022-11-28T01:59:20.308Z,7.50
2022-11-28T02:01:47.152Z,7.50
2022-11-28T02:04:14.985Z,7.50
2022-11-28T02:06:42.255Z,7.50
2022-11-28T02:09:16.695Z,7.50
2022-11-28T02:11:52.332Z,7.50
2022-11-28T02:14:52.591Z,7.50
2022-11-28T02:17:41.803Z,7.40
2022-11-28T02:20:39.448Z,7.40
2022-11-28T02:23:13.330Z,7.40
2022-11-28T02:25:52.803Z,7.40
2022-11-28T02:28:49.961Z,7.40
2022-11-28T02:31:54.270Z,7.40
2022-11-28T02:34:50.626Z,7.50
2022-11-28T02:37:31.452Z,7.60
2022-11-28T02:40:29.189Z,7.60
2022-11-28T02:43:29.593Z,7.60
2022-11-28T02:46:12.271Z,7.70
2022-11-28T02:48:50.647Z,7.70
2022-11-28T02:51:42.648Z,7.60
2022-11-28T02:54:12.944Z,7.60
2022-11-28T02:56:46.636Z,7.60
2022-11-28T02:59:44.261Z,7.60
2022-11-28T03:02:19.904Z,7.60
2022-11-28T03:05:12.612Z,7.60
2022-11-28T03:07:48.239Z,7.60
2022-11-28T03:10:33.655Z,7.60
2022-11-28T03:13:18.984Z,7.50
2022-11-28T03:16:01.710Z,7.50
2022-11-28T03:18:55.985Z,7.50
2022-11-28T03:21:32.868Z,7.50
2022-11-28T03:24:31.508Z,7.50
2022-11-28T03:27:19.307Z,7.40
2022-11-28T03:30:00.763Z,7.40
2022-11-28T03:32:34.143Z,7.40
2022-11-28T03:35:07.148Z,7.40
2022-11-28T03:37:39.201Z,7.50
2022-11-28T03:40:10.568Z,7.50
2022-11-28T03:42:42.637Z,7.50
2022-11-28T03:45:17.823Z,7.40
2022-11-28T03:47:48.196Z,7.40
2022-11-28T03:50:43.271Z,7.40
2022-11-28T03:53:18.221Z,7.40
2022-11-28T03:55:52.035Z,7.40
2022-11-28T03:58:30.086Z,7.40
2022-11-28T04:01:08.449Z,7.40
2022-11-28T04:04:02.850Z,7.40
2022-11-28T04:06:48.629Z,7.40
2022-11-28T04:09:20.185Z,7.40
2022-11-28T04:12:04.705Z,7.30
2022-11-28T04:14:48.158Z,7.30
2022-11-28T04:17:51.248Z,7.30
2022-11-28T04:20:43.632Z,7.30
2022-11-28T04:23:14.976Z,7.20
2022-11-28T04:25:48.062Z,7.30
2022-11-28T04:28:20.367Z,7.20
2022-11-28T04:30:49.565Z,7.20
2022-11-28T04:33:20.240Z,7.20
2022-11-28T04:35:50.356Z,7.20
2022-11-28T04:38:18.163Z,7.10
2022-11-28T04:40:51.425Z,7.10
2022-11-28T04:43:24.522Z,7.10
2022-11-28T04:45:57.297Z,7.10
2022-11-28T04:48:24.250Z,7.10
2022-11-28T04:51:19.659Z,7.10
2022-11-28T04:54:14.843Z,7.10
2022-11-28T04:56:49.892Z,7.00
2022-11-28T04:59:19.277Z,7.00
2022-11-28T05:01:48.379Z,7.10
2022-11-28T05:04:17.114Z,7.10
2022-11-28T05:06:44.155Z,7.10
2022-11-28T05:09:15.189Z,7.10
2022-11-28T05:11:42.124Z,7.10
2022-11-28T05:14:09.066Z,7.10
2022-11-28T05:16:35.819Z,7.10
2022-11-28T05:19:02.660Z,7.20
2022-11-28T05:21:29.614Z,7.10
2022-11-28T05:23:56.430Z,7.10
2022-11-28T05:26:23.840Z,7.10
2022-11-28T05:28:51.265Z,7.10
2022-11-28T05:31:20.385Z,7.20
2022-11-28T05:33:47.509Z,7.20
2022-11-28T05:36:15.423Z,7.20
2022-11-28T05:38:42.992Z,7.20
2022-11-28T05:41:17.866Z,7.30
2022-11-28T05:43:44.579Z,7.30
2022-11-28T05:46:11.459Z,7.30
2022-11-28T05:48:38.246Z,7.30
2022-11-28T05:51:05.539Z,7.30
2022-11-28T05:53:32.298Z,7.30
2022-11-28T05:55:59.266Z,7.30
2022-11-28T05:58:26.045Z,7.30
2022-11-28T06:00:52.688Z,7.30
2022-11-28T06:03:19.454Z,7.30
2022-11-28T06:05:46.304Z,7.30
2022-11-28T06:08:13.095Z,7.30
2022-11-28T06:10:40.133Z,7.20
2022-11-28T06:13:06.890Z,7.20
2022-11-28T06:15:37.538Z,7.30
2022-11-28T06:18:05.751Z,7.30
2022-11-28T06:20:35.196Z,7.30
2022-11-28T06:23:02.010Z,7.30
2022-11-28T06:25:29.143Z,7.30
2022-11-28T06:27:55.895Z,7.20
2022-11-28T06:30:22.584Z,7.20
2022-11-28T06:32:49.299Z,7.10
2022-11-28T06:35:16.117Z,7.00
2022-11-28T06:37:42.897Z,7.00
2022-11-28T06:40:09.929Z,7.00
2022-11-28T06:42:37.274Z,7.10
2022-11-28T06:45:05.040Z,7.00
2022-11-28T06:47:32.290Z,7.10
2022-11-28T06:49:59.031Z,7.00
2022-11-28T06:52:26.465Z,7.00
2022-11-28T06:54:53.351Z,7.00
2022-11-28T06:57:20.136Z,7.00
2022-11-28T06:59:48.808Z,7.10
2022-11-28T07:02:15.617Z,7.10
2022-11-28T07:04:42.350Z,7.10
2022-11-28T07:07:12.556Z,7.20
2022-11-28T07:09:42.072Z,7.20
2022-11-28T07:12:09.060Z,7.20
2022-11-28T07:14:35.876Z,7.20
2022-11-28T07:17:02.657Z,7.10
2022-11-28T07:19:29.506Z,7.20
2022-11-28T07:21:56.169Z,7.20
2022-11-28T07:24:23.206Z,7.20
2022-11-28T07:26:49.931Z,7.10
2022-11-28T07:29:18.074Z,7.20
2022-11-28T07:31:45.293Z,7.20
2022-11-28T07:34:12.276Z,7.20
2022-11-28T07:36:39.016Z,7.20
2022-11-28T07:39:08.781Z,7.20
2022-11-28T07:41:35.772Z,7.20
2022-11-28T07:44:04.473Z,7.20
2022-11-28T07:46:32.290Z,7.20
2022-11-28T07:48:59.178Z,7.20
2022-11-28T07:51:28.844Z,7.20
2022-11-28T07:53:56.295Z,7.20
2022-11-28T07:56:39.509Z,7.20
2022-11-28T07:59:12.113Z,7.20
2022-11-28T08:01:39.232Z,7.30
2022-11-28T08:04:08.013Z,7.20
2022-11-28T08:06:40.384Z,7.20
2022-11-28T08:09:07.797Z,7.30
2022-11-28T08:11:35.221Z,7.40
2022-11-28T08:14:03.322Z,7.40
2022-11-28T08:16:30.890Z,7.40
2022-11-28T08:19:00.927Z,7.40
2022-11-28T08:21:31.937Z,7.40
2022-11-28T08:24:01.300Z,7.50
2022-11-28T08:26:31.008Z,7.40
2022-11-28T08:28:58.815Z,7.40
2022-11-28T08:31:32.083Z,7.40
2022-11-28T08:34:01.151Z,7.40
2022-11-28T08:36:29.315Z,7.50
2022-11-28T08:39:16.562Z,7.50
2022-11-28T08:41:43.590Z,7.60
2022-11-28T08:44:10.245Z,7.60
2022-11-28T08:46:36.981Z,7.60
2022-11-28T08:49:04.758Z,7.60
2022-11-28T08:51:32.118Z,7.60
2022-11-28T08:53:59.945Z,7.60
2022-11-28T08:56:27.453Z,7.60
2022-11-28T08:58:55.002Z,7.60
2022-11-28T09:01:24.240Z,7.70
2022-11-28T09:03:52.001Z,7.70
2022-11-28T09:06:20.897Z,7.70
2022-11-28T09:08:48.754Z,7.80
2022-11-28T09:11:17.582Z,7.70
2022-11-28T09:13:44.915Z,7.80
2022-11-28T09:16:11.935Z,7.80
2022-11-28T09:18:38.950Z,7.80
2022-11-28T09:21:09.416Z,7.80
2022-11-28T09:23:37.584Z,7.80
2022-11-28T09:26:19.353Z,7.80
2022-11-28T09:28:46.437Z,7.90
2022-11-28T09:31:14.975Z,7.90
2022-11-28T09:33:42.586Z,7.90
2022-11-28T09:36:15.001Z,7.90
2022-11-28T09:38:42.301Z,7.90
2022-11-28T09:41:33.818Z,7.90
2022-11-28T09:44:08.396Z,8.00
2022-11-28T09:46:37.314Z,8.00
2022-11-28T09:49:23.944Z,8.00
2022-11-28T09:52:04.708Z,8.00
2022-11-28T09:54:49.782Z,8.00
2022-11-28T09:57:34.369Z,8.00
2022-11-28T10:00:01.359Z,8.00
2022-11-28T10:02:49.074Z,8.00
2022-11-28T10:05:24.717Z,8.10
2022-11-28T10:08:23.163Z,8.00
2022-11-28T10:11:10.036Z,8.10
2022-11-28T10:14:06.440Z,8.10
2022-11-28T10:16:55.203Z,8.10
2022-11-28T10:19:55.164Z,8.20
2022-11-28T10:23:02.647Z,8.20
2022-11-28T10:25:39.003Z,8.20
2022-11-28T10:28:11.464Z,8.20
2022-11-28T10:30:44.008Z,8.30
2022-11-28T10:33:27.387Z,8.30
2022-11-28T10:35:55.763Z,8.30
2022-11-28T10:38:27.647Z,8.30
2022-11-28T10:40:58.724Z,8.30
2022-11-28T10:43:38.195Z,8.30
2022-11-28T10:46:50.576Z,8.30
2022-11-28T10:49:20.187Z,8.30
2022-11-28T10:52:07.025Z,8.30
2022-11-28T10:55:27.408Z,8.40
2022-11-28T10:58:21.341Z,8.40
2022-11-28T11:00:51.397Z,8.50
2022-11-28T11:03:29.756Z,8.50
2022-11-28T11:05:56.668Z,8.60
2022-11-28T11:08:29.687Z,8.60
2022-11-28T11:11:24.425Z,8.60
2022-11-28T11:14:00.369Z,8.60
2022-11-28T11:16:51.497Z,8.70
2022-11-28T11:19:30.004Z,8.70
2022-11-28T11:22:05.605Z,8.60
2022-11-28T11:24:32.712Z,8.60
2022-11-28T11:27:14.844Z,8.60
2022-11-28T11:29:44.762Z,8.60
2022-11-28T11:32:29.737Z,8.60
2022-11-28T11:34:59.796Z,8.60
2022-11-28T11:37:36.730Z,8.60
2022-11-28T11:40:18.393Z,8.60
2022-11-28T11:42:56.682Z,8.60
2022-11-28T11:45:27.217Z,8.50
2022-11-28T11:47:53.988Z,8.40
2022-11-28T11:50:23.712Z,8.50
2022-11-28T11:53:10.416Z,8.40
2022-11-28T11:55:48.874Z,8.50
2022-11-28T11:58:26.779Z,8.40
2022-11-28T12:00:57.320Z,8.50
2022-11-28T12:03:31.141Z,8.40
2022-11-28T12:06:14.177Z,8.40
2022-11-28T12:08:52.820Z,8.40
2022-11-28T12:11:29.221Z,8.40
2022-11-28T12:14:03.239Z,8.40
2022-11-28T12:16:57.346Z,8.50
2022-11-28T12:19:49.157Z,8.50
2022-11-28T12:22:38.797Z,8.50
2022-11-28T12:25:33.113Z,8.40
2022-11-28T12:28:29.968Z,8.50
2022-11-28T12:31:22.366Z,8.50
2022-11-28T12:34:29.157Z,8.50
2022-11-28T12:37:10.910Z,8.60
2022-11-28T12:39:49.753Z,8.60
2022-11-28T12:42:50.502Z,8.60
2022-11-28T12:45:55.685Z,8.70
2022-11-28T12:48:53.235Z,8.70
2022-11-28T12:51:56.331Z,8.70
2022-11-28T12:54:26.122Z,8.70
2022-11-28T12:57:13.201Z,8.70
2022-11-28T12:59:51.615Z,8.70
2022-11-28T13:02:45.242Z,8.80
2022-11-28T13:05:40.306Z,8.80
2022-11-28T13:08:43.307Z,8.80
2022-11-28T13:11:25.177Z,8.80
2022-11-28T13:13:54.320Z,8.70
2022-11-28T13:16:42.422Z,8.70
2022-11-28T13:19:30.398Z,8.70
2022-11-28T13:22:03.056Z,8.80
2022-11-28T13:24:48.089Z,8.80
2022-11-28T13:27:37.713Z,8.80
2022-11-28T13:30:25.313Z,8.80
2022-11-28T13:33:17.821Z,8.90
2022-11-28T13:35:46.461Z,8.90
2022-11-28T13:38:49.318Z,8.90
2022-11-28T13:41:35.803Z,9.00
2022-11-28T13:44:20.744Z,8.90
2022-11-28T13:46:47.896Z,9.00
2022-11-28T13:49:24.323Z,9.00
2022-11-28T13:52:18.821Z,9.00
2022-11-28T13:54:52.771Z,9.00
2022-11-28T13:57:27.545Z,9.00
2022-11-28T14:00:05.125Z,9.00
2022-11-28T14:02:36.979Z,9.00
2022-11-28T14:05:05.406Z,9.10
2022-11-28T14:07:34.019Z,9.00
2022-11-28T14:10:24.210Z,9.00
2022-11-28T14:12:56.918Z,9.00
2022-11-28T14:15:41.270Z,9.00
2022-11-28T14:18:54.952Z,9.00
2022-11-28T14:21:35.986Z,9.00
2022-11-28T14:24:24.555Z,9.10
2022-11-28T14:27:00.818Z,9.10
2022-11-28T14:29:38.301Z,9.10
2022-11-28T14:32:29.101Z,9.10
2022-11-28T14:34:52.862Z,9.10
2022-11-28T14:37:19.704Z,9.20
2022-11-28T14:39:50.152Z,9.20
2022-11-28T14:45:39.538Z,9.10
2022-11-28T14:48:14.306Z,9.10
2022-11-28T14:50:41.079Z,9.10
2022-11-28T14:53:36.325Z,9.20
2022-11-28T14:56:25.763Z,9.20
2022-11-28T14:58:57.157Z,9.20
2022-11-28T15:01:35.796Z,9.20
2022-11-28T15:04:34.363Z,9.20
2022-11-28T15:07:03.382Z,9.30
2022-11-28T15:09:49.988Z,9.30
2022-11-28T15:12:34.813Z,9.20
2022-11-28T15:15:02.352Z,9.20
2022-11-28T15:17:33.409Z,9.20
2022-11-28T15:20:09.003Z,9.20
2022-11-28T15:22:41.871Z,9.20
2022-11-28T15:25:22.437Z,9.30
2022-11-28T15:27:52.024Z,9.30
2022-11-28T15:30:26.318Z,9.30
2022-11-28T15:33:02.251Z,9.30
2022-11-28T15:35:30.583Z,9.30
2022-11-28T15:37:58.690Z,9.30
2022-11-28T15:40:36.852Z,9.30
2022-11-28T15:43:11.068Z,9.30
2022-11-28T15:45:42.138Z,9.40
2022-11-28T15:48:26.121Z,9.40
2022-11-28T15:50:53.544Z,9.40
2022-11-28T15:53:21.536Z,9.40
2022-11-28T15:56:06.412Z,9.40
2022-11-28T15:58:33.138Z,9.40
2022-11-28T16:01:03.523Z,9.40
2022-11-28T16:03:36.134Z,9.40
2022-11-28T16:06:06.539Z,9.40
2022-11-28T16:08:47.588Z,9.40
2022-11-28T16:11:18.217Z,9.40
2022-11-28T16:13:46.307Z,9.40
2022-11-28T16:16:18.069Z,9.40
2022-11-28T16:18:52.199Z,9.40
2022-11-28T16:21:19.092Z,9.50
2022-11-28T16:23:46.084Z,9.50
2022-11-28T16:26:35.472Z,9.40
2022-11-28T16:29:08.459Z,9.40
2022-11-28T16:31:35.870Z,9.40
2022-11-28T16:34:03.116Z,9.40
2022-11-28T16:36:31.031Z,9.40
2022-11-28T16:39:10.125Z,9.40
2022-11-28T16:41:42.874Z,9.40
2022-11-28T16:44:15.798Z,9.40
2022-11-28T16:46:57.712Z,9.40
2022-11-28T16:49:39.839Z,9.40
2022-11-28T16:52:22.233Z,9.40
2022-11-28T16:54:56.396Z,9.40
2022-11-28T16:57:27.603Z,9.30
2022-11-28T16:59:58.373Z,9.40
2022-11-28T17:02:28.911Z,9.30
2022-11-28T17:04:55.992Z,9.20
2022-11-28T17:07:24.654Z,9.20
2022-11-28T17:09:51.748Z,9.20
2022-11-28T17:12:32.694Z,9.20
2022-11-28T17:14:59.714Z,9.30
2022-11-28T17:17:28.020Z,9.30
2022-11-28T17:19:54.712Z,9.30
2022-11-28T17:22:24.706Z,9.30
2022-11-28T17:24:57.398Z,9.30
2022-11-28T17:27:24.160Z,9.30
2022-11-28T17:29:50.864Z,9.30
2022-11-28T17:32:17.604Z,9.30
2022-11-28T17:34:46.221Z,9.30
2022-11-28T17:37:13.243Z,9.30
2022-11-28T17:40:02.922Z,9.30
2022-11-28T17:42:30.635Z,9.30
2022-11-28T17:44:57.414Z,9.30
2022-11-28T17:47:24.356Z,9.30
2022-11-28T17:49:51.832Z,9.40
2022-11-28T17:52:20.168Z,9.40
2022-11-28T17:54:47.169Z,9.40
2022-11-28T17:57:14.268Z,9.40
2022-11-28T17:59:41.277Z,9.40
2022-11-28T18:02:11.024Z,9.40
2022-11-28T18:04:38.176Z,9.50
2022-11-28T18:07:04.995Z,9.50
2022-11-28T18:09:32.010Z,9.50
2022-11-28T18:11:58.945Z,9.50
2022-11-28T18:14:25.831Z,9.50
2022-11-28T18:16:52.638Z,9.50
2022-11-28T18:19:19.471Z,9.60
2022-11-28T18:21:46.146Z,9.60
2022-11-28T18:24:12.835Z,9.70
2022-11-28T18:26:40.087Z,9.60
2022-11-28T18:29:07.360Z,9.70
2022-11-28T18:31:35.230Z,9.80
2022-11-28T18:34:04.352Z,9.80
2022-11-28T18:36:33.001Z,9.80
2022-11-28T18:39:02.008Z,9.70
2022-11-28T18:41:30.017Z,9.70
2022-11-28T18:43:58.479Z,9.70
2022-11-28T18:46:26.053Z,9.70
2022-11-28T18:48:53.570Z,9.70
2022-11-28T18:51:29.112Z,9.70
2022-11-28T18:53:57.203Z,9.70
2022-11-28T18:56:25.390Z,9.70
2022-11-28T18:58:53.945Z,9.70
2022-11-28T19:01:22.928Z,9.70
2022-11-28T19:03:51.962Z,9.70
2022-11-28T19:06:19.707Z,9.70
2022-11-28T19:08:46.949Z,9.70
2022-11-28T19:11:16.565Z,9.60
2022-11-28T19:13:45.359Z,9.60
2022-11-28T19:16:15.907Z,9.70
2022-11-28T19:18:43.391Z,9.70
2022-11-28T19:21:13.397Z,9.70
2022-11-28T19:23:41.237Z,9.70
2022-11-28T19:26:10.650Z,9.70
2022-11-28T19:28:39.478Z,9.70
2022-11-28T19:31:12.267Z,9.60
2022-11-28T19:33:39.821Z,9.70
2022-11-28T19:36:08.592Z,9.60
2022-11-28T19:38:36.499Z,9.60
2022-11-28T19:41:07.291Z,9.60
2022-11-28T19:43:35.066Z,9.70
2022-11-28T19:46:02.935Z,9.70
2022-11-28T19:48:31.245Z,9.70
2022-11-28T19:50:58.474Z,9.70
2022-11-28T19:53:25.889Z,9.70
2022-11-28T19:55:54.063Z,9.70
2022-11-28T19:58:21.544Z,9.80
2022-11-28T20:00:48.244Z,9.70
2022-11-28T20:03:14.994Z,9.80
2022-11-28T20:05:42.267Z,9.80
2022-11-28T20:08:09.390Z,9.80
2022-11-28T20:10:38.442Z,9.80
2022-11-28T20:13:06.367Z,9.80
2022-11-28T20:15:36.780Z,9.80
2022-11-28T20:18:03.993Z,9.80
2022-11-28T20:20:30.969Z,9.80
2022-11-28T20:22:59.178Z,9.80
2022-11-28T20:25:26.062Z,9.80
2022-11-28T20:27:52.799Z,9.80
2022-11-28T20:30:19.627Z,9.80
2022-11-28T20:32:46.563Z,9.80
2022-11-28T20:35:13.285Z,9.90
2022-11-28T20:37:40.044Z,9.80
2022-11-28T20:40:07.612Z,9.80
2022-11-28T20:42:39.645Z,9.80
2022-11-28T20:45:07.296Z,9.80
2022-11-28T20:47:35.298Z,9.80
2022-11-28T20:50:02.123Z,9.80
2022-11-28T20:52:29.172Z,9.80
2022-11-28T20:54:55.879Z,9.80
2022-11-28T20:57:22.764Z,9.90
2022-11-28T20:59:49.633Z,9.80
2022-11-28T21:02:16.419Z,9.90
2022-11-28T21:04:43.197Z,9.90
2022-11-28T21:07:09.983Z,9.80
2022-11-28T21:09:37.128Z,9.90
2022-11-28T21:12:04.100Z,9.80
2022-11-28T21:14:31.056Z,9.80
2022-11-28T21:16:58.520Z,9.80
2022-11-28T21:19:25.320Z,9.80
2022-11-28T21:21:52.148Z,9.80
2022-11-28T21:24:18.857Z,9.80
2022-11-28T21:26:51.359Z,9.80
2022-11-28T21:29:20.655Z,9.70
2022-11-28T21:31:47.568Z,9.80
2022-11-28T21:34:15.549Z,9.80
2022-11-28T21:36:43.059Z,9.70
2022-11-28T21:39:20.886Z,9.80
2022-11-28T21:41:48.096Z,9.70
2022-11-28T21:44:14.945Z,9.80
2022-11-28T21:46:41.699Z,9.80
2022-11-28T21:49:08.536Z,9.80
2022-11-28T21:51:35.277Z,9.80
2022-11-28T21:54:02.745Z,9.80
2022-11-28T21:56:29.935Z,9.80
2022-11-28T21:58:56.721Z,9.80
2022-11-28T22:01:23.448Z,9.90
2022-11-28T22:03:50.437Z,9.80
2022-11-28T22:06:20.658Z,9.80
2022-11-28T22:08:48.639Z,9.80
2022-11-28T22:11:16.454Z,9.80
2022-11-28T22:13:45.983Z,9.80
2022-11-28T22:16:17.393Z,9.80
2022-11-28T22:18:45.081Z,9.80
2022-11-28T22:21:49.804Z,9.70
2022-11-28T22:23:59.339Z,9.70
2022-11-28T22:26:26.059Z,9.70
2022-11-28T22:28:53.891Z,9.60
2022-11-28T22:31:21.242Z,9.60
2022-11-28T22:33:49.569Z,9.60
2022-11-28T22:36:19.261Z,9.60
2022-11-28T22:38:46.961Z,9.50
2022-11-28T22:41:23.272Z,9.50
2022-11-28T22:43:55.912Z,9.50
2022-11-28T22:46:22.890Z,9.50
2022-11-28T22:48:52.614Z,9.50
2022-11-28T22:51:25.550Z,9.50
2022-11-28T22:54:02.323Z,9.50
2022-11-28T22:56:31.049Z,9.40
2022-11-28T22:58:58.236Z,9.40
2022-11-28T23:01:28.487Z,9.50
2022-11-28T23:03:55.812Z,9.40
2022-11-28T23:06:25.033Z,9.40
2022-11-28T23:08:52.561Z,9.40
2022-11-28T23:11:22.680Z,9.40
2022-11-28T23:13:50.571Z,9.40
2022-11-28T23:16:23.345Z,9.40
2022-11-28T23:18:53.335Z,9.40
2022-11-28T23:21:21.055Z,9.50
2022-11-28T23:23:48.369Z,9.50
2022-11-28T23:26:18.756Z,9.50
2022-11-28T23:28:46.007Z,9.50
2022-11-28T23:31:16.687Z,9.50
2022-11-28T23:33:44.131Z,9.50
2022-11-28T23:36:16.501Z,9.60
2022-11-28T23:38:44.618Z,9.60
2022-11-28T23:41:11.846Z,9.60
2022-11-28T23:43:39.200Z,9.60
2022-11-28T23:46:07.317Z,9.70
2022-11-28T23:48:34.319Z,9.60
2022-11-28T23:51:01.262Z,9.60
2022-11-28T23:53:28.056Z,9.60
2022-11-28T23:55:55.082Z,9.60
2022-11-28T23:58:21.811Z,9.60
